East Conneaut, Ohio
Current Conditions -  °F | °C
As of 9:53 AM on Saturday 25 Oct 2014 (Local Time) from KHZY Reporting Station
Scattered Clouds Scattered Clouds  
Wind Chill: 54°   Ceiling: Unl
Heat Index: 54°   Visibility: 8mi
Dew Point: 46°   Wind: 13mph
Humidity: 75%   Direction: 220°SW
Pressure: 29.85"   Gusts: NA
Location:  41.8949°N, 80.5816°W
Report Text: KHZY 251353Z AUTO 22011KT 8SM SCT100 12/08 A2985 RMK AO2 SLP110 T01220078
Loading
Personal Weather Stations






























Interactive Weather Map
Tropical Storm Tracking
New forecast layout! Learn more

10-Day Weather Forecast

Advertisements
Track Severe Weather on mobile